Time;durP1;ratioP1;P1;durP2;ratioP2;P2;SDS_P1;SDS_P2;PMS_P1;PMS_P2;Temp;Humidity;BMP_temperature;BMP_pressure;BME280_temperature;BME280_humidity;BME280_pressure;Samples;Min_cycle;Max_cycle;Signal;HPM_P1;HPM_P2
2022/08/03 00:02:18;;;;;;;7.87;6.55;;;;;;;16.72;67.32;100499.09;2040457;87;28717;-64
2022/08/03 00:05:19;;;;;;;9.13;5.85;;;;;;;16.69;67.53;100498.84;2040201;87;31147;-64
2022/08/03 00:08:21;;;;;;;9.88;5.72;;;;;;;16.68;67.68;100500.31;2040455;87;32956;-64
2022/08/03 00:11:23;;;;;;;6.53;5.25;;;;;;;16.66;67.81;100501.77;2040415;87;29482;-64
2022/08/03 00:14:24;;;;;;;7.55;5.97;;;;;;;16.62;67.79;100501.63;2043194;86;27687;-64
2022/08/03 00:17:26;;;;;;;6.92;5.40;;;;;;;16.60;67.94;100504.05;2048948;86;28729;-65
2022/08/03 00:20:29;;;;;;;9.68;5.90;;;;;;;16.56;67.95;100498.00;2049279;86;31448;-64
2022/08/03 00:23:31;;;;;;;7.40;5.47;;;;;;;16.52;68.03;100504.13;2075924;85;33593;-64
2022/08/03 00:26:32;;;;;;;7.70;5.75;;;;;;;16.49;68.23;100498.05;2083795;85;29928;-64
2022/08/03 00:29:33;;;;;;;9.38;6.50;;;;;;;16.45;68.25;100495.22;2083905;85;27662;-65
2022/08/03 00:32:35;;;;;;;10.08;6.10;;;;;;;16.41;68.28;100501.30;2083996;85;29064;-65
2022/08/03 00:35:36;;;;;;;9.88;5.62;;;;;;;16.38;68.54;100498.84;2083923;85;30782;-64
2022/08/03 00:38:38;;;;;;;12.23;6.60;;;;;;;16.34;68.55;100498.67;2083851;85;33394;-65
2022/08/03 00:41:39;;;;;;;8.35;6.35;;;;;;;16.29;68.60;100501.71;2083954;85;30466;-65
2022/08/03 00:44:43;;;;;;;5.70;5.20;;;;;;;16.26;68.88;100499.22;2083873;85;27677;-65
2022/08/03 00:47:45;;;;;;;9.57;5.87;;;;;;;16.22;68.91;100500.40;2084148;85;28657;-65
2022/08/03 00:50:47;;;;;;;7.30;6.53;;;;;;;16.18;69.01;100499.76;2083524;85;31083;-65
2022/08/03 00:53:49;;;;;;;9.58;6.30;;;;;;;16.14;69.17;100496.00;2083399;84;34202;-64
2022/08/03 00:56:50;;;;;;;10.98;6.55;;;;;;;16.10;69.23;100499.41;2083540;85;29385;-65
2022/08/03 00:59:52;;;;;;;7.22;6.25;;;;;;;16.07;69.72;100502.33;2083786;85;27730;-65
2022/08/03 01:02:54;;;;;;;8.50;5.60;;;;;;;16.03;69.57;100494.92;2057043;85;28675;-64
2022/08/03 01:06:17;;;;;;;9.30;6.17;;;;;;;15.99;69.76;100488.00;2084141;85;31054;-65
2022/08/03 01:09:56;;;;;;;11.53;6.50;;;;;;;15.96;69.71;100488.23;2084450;85;33355;-65
2022/08/03 01:13:26;;;;;;;10.78;6.67;;;;;;;15.83;69.85;100474.67;2075290;84;29344;-65
2022/08/03 01:16:44;;;;;;;14.50;6.62;;;;;;;15.88;70.17;100494.64;2074035;85;29301;-65
2022/08/03 01:19:59;;;;;;;10.65;6.67;;;;;;;15.64;70.18;100462.42;2075652;85;29323;-65
2022/08/03 01:23:28;;;;;;;8.48;6.47;;;;;;;15.81;70.23;100498.22;2077116;85;31353;-64
2022/08/03 01:26:50;;;;;;;9.35;7.20;;;;;;;15.77;70.34;100493.98;2078549;85;33144;-65
2022/08/03 01:30:02;;;;;;;7.97;6.67;;;;;;;15.73;70.58;100491.11;2077462;85;30395;-65
2022/08/03 01:33:13;;;;;;;12.03;7.28;;;;;;;15.68;70.78;100487.38;2077662;85;27787;-65
2022/08/03 01:36:22;;;;;;;9.98;7.30;;;;;;;15.68;70.78;100487.38;2078404;85;28644;-65
2022/08/03 01:39:25;;;;;;;9.33;7.35;;;;;;;15.68;71.16;100485.18;2078611;85;32015;-65
2022/08/03 01:42:27;;;;;;;10.48;7.12;;;;;;;15.67;71.36;100487.00;2078739;85;32996;-65
2022/08/03 01:45:29;;;;;;;8.33;7.28;;;;;;;15.67;71.37;100482.95;2055840;85;30178;-65
2022/08/03 01:48:31;;;;;;;11.48;7.35;;;;;;;15.65;71.36;100487.11;2087879;85;27968;-65
2022/08/03 01:51:34;;;;;;;8.50;7.55;;;;;;;15.59;71.39;100470.47;2087218;85;28770;-65
2022/08/03 01:54:44;;;;;;;16.95;8.10;;;;;;;15.54;71.34;100461.33;2087636;85;31071;-65
2022/08/03 01:57:47;;;;;;;10.78;7.42;;;;;;;15.59;71.71;100473.16;2087342;85;33820;-65
2022/08/03 02:00:50;;;;;;;7.78;6.97;;;;;;;15.59;71.71;100473.16;2087499;85;29443;-64
2022/08/03 02:03:52;;;;;;;9.05;8.10;;;;;;;15.59;71.84;100474.52;2086371;85;27634;-65
2022/08/03 02:06:54;;;;;;;9.55;7.58;;;;;;;15.60;72.18;100473.55;2083825;85;29508;-65
2022/08/03 02:09:59;;;;;;;8.45;7.17;;;;;;;15.60;72.13;100468.14;2083982;85;32202;-65
2022/08/03 02:13:01;;;;;;;15.53;9.67;;;;;;;15.47;72.10;100444.66;2083819;85;33815;-66
2022/08/03 02:16:03;;;;;;;10.93;7.45;;;;;;;15.59;72.21;100465.91;2079607;85;29384;-66
2022/08/03 02:19:06;;;;;;;10.63;7.70;;;;;;;15.59;72.27;100466.41;2078207;85;27805;-64
2022/08/03 02:22:10;;;;;;;11.00;8.15;;;;;;;15.56;72.23;100463.92;2077378;85;28493;-64
2022/08/03 02:25:14;;;;;;;7.92;7.08;;;;;;;15.54;72.24;100460.45;2058318;86;31690;-64
2022/08/03 02:28:19;;;;;;;8.80;7.78;;;;;;;15.53;72.38;100464.12;2059886;86;33840;-64
2022/08/03 02:31:26;;;;;;;12.93;8.88;;;;;;;15.50;72.42;100462.50;2059695;86;29949;-63
2022/08/03 02:34:29;;;;;;;14.45;10.48;;;;;;;15.26;72.71;100421.84;2059572;86;27711;-63
2022/08/03 02:37:36;;;;;;;12.90;9.18;;;;;;;15.50;73.15;100460.66;2054629;85;29830;-63
2022/08/03 02:40:39;;;;;;;10.63;9.63;;;;;;;15.53;73.41;100465.00;2042436;87;31037;-63
2022/08/03 02:43:44;;;;;;;15.95;10.05;;;;;;;15.57;73.74;100462.45;2077855;85;32807;-63
2022/08/03 02:46:48;;;;;;;9.45;8.20;;;;;;;15.60;73.63;100458.70;2078423;85;29344;-63
2022/08/03 02:49:50;;;;;;;10.78;9.15;;;;;;;15.62;73.71;100458.11;2077976;85;27711;-63
2022/08/03 02:52:52;;;;;;;11.53;9.70;;;;;;;15.64;73.72;100462.42;2077907;85;29146;-63
2022/08/03 02:55:54;;;;;;;10.95;9.85;;;;;;;15.71;73.70;100464.22;2040191;87;32266;-63
2022/08/03 02:58:57;;;;;;;11.40;9.48;;;;;;;15.71;73.70;100464.22;1996536;87;33358;-63
2022/08/03 03:02:00;;;;;;;13.18;10.43;;;;;;;15.75;73.98;100460.34;2040126;87;30761;-63
2022/08/03 03:05:01;;;;;;;12.73;9.60;;;;;;;15.80;73.85;100470.32;2019956;88;27732;-63
2022/08/03 03:08:04;;;;;;;12.47;10.70;;;;;;;15.85;73.93;100475.47;2019592;88;29914;-63
2022/08/03 03:11:07;;;;;;;10.65;9.55;;;;;;;15.90;74.06;100471.09;2019974;87;31045;-63
2022/08/03 03:14:09;;;;;;;14.00;9.58;;;;;;;15.86;74.36;100446.13;2019690;88;33759;-63
2022/08/03 03:17:14;;;;;;;11.75;9.78;;;;;;;15.86;74.36;100446.13;2019599;87;30642;-62
2022/08/03 03:20:17;;;;;;;11.40;10.20;;;;;;;16.04;74.14;100468.28;1996090;87;27742;-63
2022/08/03 03:23:21;;;;;;;12.95;9.73;;;;;;;16.08;74.34;100468.92;2062326;86;29771;-64
2022/08/03 03:26:22;;;;;;;12.83;9.80;;;;;;;16.10;74.16;100465.16;2068420;86;30788;-64
2022/08/03 03:29:24;;;;;;;11.33;9.55;;;;;;;16.14;74.32;100471.20;2077909;85;34177;-65
2022/08/03 03:32:28;;;;;;;12.85;10.55;;;;;;;16.17;74.22;100478.22;2078288;85;28616;-64
2022/08/03 03:35:29;;;;;;;11.63;10.43;;;;;;;16.21;74.17;100486.03;2078226;85;27632;-66
2022/08/03 03:38:32;;;;;;;13.68;10.18;;;;;;;16.25;74.20;100486.17;2078498;85;29245;-66
2022/08/03 03:41:34;;;;;;;12.93;11.33;;;;;;;16.31;74.21;100486.22;2078499;85;31027;-65
2022/08/03 03:44:35;;;;;;;13.65;10.78;;;;;;;16.36;74.22;100481.86;2078318;85;33011;-65
2022/08/03 03:47:37;;;;;;;12.53;11.33;;;;;;;16.41;74.17;100479.67;2077863;85;29555;-65
2022/08/03 03:50:39;;;;;;;16.73;10.63;;;;;;;16.46;74.20;100475.31;2077901;85;27736;-66
2022/08/03 03:54:00;;;;;;;12.95;10.68;;;;;;;16.50;74.11;100480.38;2077891;85;29174;-65
2022/08/03 03:57:01;;;;;;;11.73;10.48;;;;;;;16.56;74.09;100478.56;2078148;85;31451;-66
2022/08/03 04:00:05;;;;;;;11.40;10.23;;;;;;;16.62;74.15;100483.17;2033022;85;33343;-66
2022/08/03 04:03:06;;;;;;;13.83;11.03;;;;;;;16.67;73.98;100479.66;2078022;85;30163;-66
2022/08/03 04:12:49;;;;;;;14.95;9.63;;;;;;;16.81;73.90;100477.27;2077748;85;30973;-65
2022/08/03 04:15:51;;;;;;;12.43;9.90;;;;;;;16.83;73.86;100482.09;2090115;84;33086;-65
2022/08/03 04:19:00;;;;;;;12.23;10.35;;;;;;;16.85;73.80;100483.72;2112339;84;29448;-66
2022/08/03 04:22:10;;;;;;;12.58;10.45;;;;;;;16.88;73.82;100484.48;2112635;84;27721;-66
2022/08/03 04:25:16;;;;;;;14.45;10.58;;;;;;;16.88;73.89;100490.74;2112699;84;28391;-67
2022/08/03 04:28:19;;;;;;;14.95;10.82;;;;;;;16.91;73.82;100490.99;2112516;84;32631;-64
2022/08/03 04:31:22;;;;;;;11.63;10.43;;;;;;;16.96;73.90;100492.92;2112678;84;32963;-65
2022/08/03 04:34:23;;;;;;;13.25;10.75;;;;;;;17.00;73.80;100493.92;2112471;84;29390;-66
2022/08/03 04:37:42;;;;;;;12.58;11.08;;;;;;;17.06;73.84;100498.02;2113048;84;27654;-65
2022/08/03 04:40:43;;;;;;;14.68;11.05;;;;;;;17.12;73.74;100498.92;2113113;84;29689;-66
2022/08/03 04:43:45;;;;;;;18.48;10.32;;;;;;;17.21;73.70;100499.23;2112760;84;31079;-65
2022/08/03 04:46:46;;;;;;;12.70;9.63;;;;;;;17.28;73.66;100508.14;2112917;84;33109;-65
2022/08/03 04:49:47;;;;;;;11.08;9.95;;;;;;;17.36;73.51;100506.69;2113076;84;30229;-65
2022/08/03 04:52:48;;;;;;;15.35;10.58;;;;;;;17.41;73.46;100502.64;2113037;84;27653;-66
2022/08/03 04:55:50;;;;;;;12.47;10.08;;;;;;;17.49;73.45;100502.06;2112480;84;29054;-65
2022/08/03 04:58:52;;;;;;;12.88;9.90;;;;;;;17.55;73.28;100496.66;2112765;84;31065;-66
2022/08/03 05:01:53;;;;;;;12.88;10.58;;;;;;;17.65;73.33;100499.06;2112812;84;33825;-66
2022/08/03 05:04:54;;;;;;;11.35;10.05;;;;;;;17.97;73.59;100498.42;2112916;84;30613;-66
2022/08/03 05:07:56;;;;;;;14.75;10.90;;;;;;;18.52;73.96;100504.59;2112684;84;27708;-66
2022/08/03 05:10:57;;;;;;;18.02;10.18;;;;;;;19.20;73.25;100495.02;2113275;84;28685;-66
2022/08/03 05:13:58;;;;;;;13.13;9.30;;;;;;;19.79;72.13;100492.83;2113233;84;30995;-66
2022/08/03 05:16:59;;;;;;;13.25;9.70;;;;;;;20.02;70.81;100495.47;2112450;83;32949;-66
2022/08/03 05:20:02;;;;;;;9.48;8.58;;;;;;;20.20;69.87;100492.98;2112675;84;29276;-65
2022/08/03 05:23:04;;;;;;;10.38;8.93;;;;;;;20.28;69.52;100497.24;2112603;84;27634;-65
2022/08/03 05:26:05;;;;;;;13.32;8.48;;;;;;;20.36;68.44;100493.00;2112777;84;29100;-66
2022/08/03 05:29:07;;;;;;;10.13;8.63;;;;;;;20.42;68.65;100490.59;2112864;84;32259;-66
2022/08/03 05:32:08;;;;;;;13.08;8.68;;;;;;;20.75;68.43;100493.19;2112666;84;32768;-65
2022/08/03 05:35:10;;;;;;;8.68;7.83;;;;;;;21.19;68.30;100495.59;2112387;84;31494;-66
2022/08/03 05:38:11;;;;;;;12.15;8.73;;;;;;;21.60;67.56;100496.86;2090644;84;28322;-65
2022/08/03 05:41:12;;;;;;;9.55;7.95;;;;;;;21.91;66.91;100496.23;2113202;84;29449;-66
2022/08/03 05:44:14;;;;;;;10.00;7.72;;;;;;;22.16;66.53;100507.55;2112319;84;31015;-65
2022/08/03 05:47:15;;;;;;;9.50;8.20;;;;;;;22.42;65.86;100501.47;2112426;84;33518;-66
2022/08/03 05:50:18;;;;;;;11.53;7.87;;;;;;;22.62;65.06;100503.62;2112670;84;29268;-66
2022/08/03 05:53:20;;;;;;;9.43;7.20;;;;;;;22.72;64.31;100502.21;2112844;84;27616;-66
2022/08/03 05:56:24;;;;;;;7.87;7.15;;;;;;;22.98;64.40;100500.16;2112721;84;28585;-66
2022/08/03 05:59:25;;;;;;;11.97;7.53;;;;;;;23.38;63.68;100504.38;2112766;84;31055;-66
2022/08/03 06:02:26;;;;;;;11.12;6.20;;;;;;;23.76;63.23;100506.45;2112602;84;33365;-66
2022/08/03 06:05:28;;;;;;;7.45;6.05;;;;;;;23.97;62.82;100501.20;2112265;84;30207;-66
2022/08/03 06:08:29;;;;;;;8.35;6.00;;;;;;;24.08;62.06;100503.67;2112788;84;27644;-66
2022/08/03 06:11:30;;;;;;;6.92;5.90;;;;;;;24.38;61.94;100504.73;2112660;84;29477;-67
2022/08/03 06:14:32;;;;;;;8.00;5.85;;;;;;;24.80;61.06;100498.46;2112897;84;31001;-66
2022/08/03 06:17:33;;;;;;;7.20;4.60;;;;;;;25.36;61.10;100506.19;2093141;84;33639;-66
2022/08/03 06:20:35;;;;;;;6.87;4.97;;;;;;;25.97;59.79;100511.94;2084090;85;30649;-67
2022/08/03 06:23:36;;;;;;;8.30;5.15;;;;;;;26.48;58.58;100507.59;2084493;84;27676;-67
2022/08/03 06:26:37;;;;;;;6.15;4.70;;;;;;;27.09;57.91;100505.16;2084299;85;28549;-66
2022/08/03 06:29:38;;;;;;;5.53;4.83;;;;;;;27.70;57.18;100504.44;2084506;85;32150;-66
2022/08/03 06:32:40;;;;;;;6.25;4.35;;;;;;;28.39;54.92;100508.13;2084199;85;33482;-68
2022/08/03 06:35:41;;;;;;;4.42;4.03;;;;;;;28.96;54.99;100507.16;2084269;84;29358;-67
2022/08/03 06:38:42;;;;;;;6.00;4.33;;;;;;;29.54;54.22;100504.97;2084320;85;27600;-66
2022/08/03 06:41:44;;;;;;;12.80;4.45;;;;;;;30.15;52.41;100499.52;2084655;85;29625;-66
2022/08/03 06:44:45;;;;;;;8.35;3.87;;;;;;;30.70;51.82;100512.13;2084515;85;31456;-66
2022/08/03 06:47:47;;;;;;;5.87;3.87;;;;;;;31.22;50.93;100505.67;2084053;85;33145;-66
2022/08/03 06:50:48;;;;;;;7.15;3.35;;;;;;;31.78;49.98;100503.70;2083997;85;30119;-68
2022/08/03 06:53:49;;;;;;;6.17;3.08;;;;;;;32.39;48.76;100505.09;2084282;85;28230;-68
2022/08/03 06:56:51;;;;;;;5.00;3.62;;;;;;;32.90;47.48;100502.09;2083957;84;29861;-66
2022/08/03 07:00:00;;;;;;;5.55;3.65;;;;;;;33.31;46.69;100506.39;2083921;85;31476;-68
2022/08/03 07:02:58;;;;;;;3.92;3.62;;;;;;;33.71;45.63;100508.09;2083037;85;34182;-68
2022/08/03 07:06:00;;;;;;;5.42;3.45;;;;;;;34.05;44.38;100501.75;2084046;84;29711;-65
2022/08/03 07:09:01;;;;;;;5.37;3.87;;;;;;;34.34;43.59;100500.72;2084151;85;27760;-67
2022/08/03 07:12:05;;;;;;;5.53;3.62;;;;;;;34.58;43.35;100499.55;2084068;85;28666;-69
2022/08/03 07:15:07;;;;;;;;;;;;;;;34.90;42.62;100507.73;2086454;85;31049;-67
2022/08/03 07:18:08;;;;;;;4.05;3.00;;;;;;;35.02;41.04;100497.23;2083488;85;34216;-66
2022/08/03 07:21:11;;;;;;;5.22;3.70;;;;;;;35.19;41.38;100494.11;2083952;85;30589;-67
2022/08/03 07:24:12;;;;;;;3.72;3.42;;;;;;;35.43;40.69;100497.83;2083969;85;27600;-67
2022/08/03 07:27:15;;;;;;;5.15;2.58;;;;;;;35.64;40.14;100497.02;2083847;85;28715;-66
2022/08/03 07:30:17;;;;;;;3.73;3.37;;;;;;;35.88;39.62;100501.23;2084367;85;31046;-66
2022/08/03 07:33:18;;;;;;;4.15;3.33;;;;;;;36.00;37.50;100487.34;2083520;85;34164;-66
2022/08/03 07:36:20;;;;;;;3.45;3.25;;;;;;;35.96;37.99;100495.88;2083853;85;29367;-69
2022/08/03 07:39:21;;;;;;;3.52;3.10;;;;;;;36.12;38.10;100494.33;2083668;85;27639;-67
2022/08/03 07:42:26;;;;;;;7.25;3.35;;;;;;;36.26;37.66;100492.99;2083992;85;28811;-65
2022/08/03 07:45:27;;;;;;;4.22;3.87;;;;;;;36.23;36.19;100492.64;2042818;86;31116;-65
2022/08/03 07:48:28;;;;;;;5.00;4.05;;;;;;;36.13;36.52;100490.45;2042360;87;34229;-65
2022/08/03 07:51:31;;;;;;;4.92;3.10;;;;;;;36.29;36.55;100491.11;2042644;87;45705;-65
2022/08/03 07:54:32;;;;;;;6.55;3.42;;;;;;;36.46;36.32;100494.03;2042659;87;27989;-65
2022/08/03 07:57:34;;;;;;;8.88;3.55;;;;;;;36.56;35.53;100489.23;2042863;87;28197;-65
2022/08/03 08:00:36;;;;;;;9.00;3.55;;;;;;;36.42;35.05;100491.95;2042931;87;30992;-67
2022/08/03 08:03:37;;;;;;;4.75;3.72;;;;;;;36.44;35.19;100498.14;2042954;85;33981;-69
2022/08/03 08:06:38;;;;;;;5.50;3.10;;;;;;;36.52;35.33;100492.76;2042869;87;29684;-67
2022/08/03 08:09:41;;;;;;;2.50;2.30;;;;;;;36.56;34.00;100499.56;2043298;87;27815;-64
2022/08/03 08:12:42;;;;;;;5.03;3.02;;;;;;;36.55;34.46;100497.86;2042916;87;28733;-65
2022/08/03 08:15:43;;;;;;;3.87;3.47;;;;;;;36.71;33.93;100494.31;2042443;85;33155;-67
2022/08/03 08:18:45;;;;;;;3.35;2.83;;;;;;;36.67;34.07;100490.84;2050795;86;33414;-68
2022/08/03 08:21:46;;;;;;;2.65;2.37;;;;;;;36.63;33.09;100494.67;2052564;86;30517;-68
2022/08/03 08:24:48;;;;;;;9.23;3.25;;;;;;;36.74;33.77;100492.39;2052645;86;27685;-65
2022/08/03 08:27:49;;;;;;;5.78;2.80;;;;;;;36.92;33.23;100489.13;2052146;86;29905;-66
2022/08/03 08:30:51;;;;;;;3.58;2.58;;;;;;;37.13;33.52;100489.59;2052391;86;31008;-65
2022/08/03 08:33:53;;;;;;;2.87;1.72;;;;;;;37.08;32.85;100489.78;2052298;86;33037;-66
2022/08/03 08:36:54;;;;;;;4.62;2.62;;;;;;;37.15;32.75;100496.61;2052260;86;29327;-66
2022/08/03 08:39:56;;;;;;;3.17;2.72;;;;;;;37.34;32.95;100488.03;2052665;86;27685;-66
2022/08/03 08:42:57;;;;;;;4.47;2.75;;;;;;;37.40;32.10;100487.03;2052993;86;28466;-64
2022/08/03 08:45:58;;;;;;;4.53;3.08;;;;;;;37.28;31.54;100484.86;2053038;86;32205;-64
2022/08/03 08:49:00;;;;;;;2.87;2.50;;;;;;;37.05;31.44;100486.64;2053161;86;32708;-68
2022/08/03 08:52:03;;;;;;;3.95;1.80;;;;;;;37.03;31.71;100483.25;2052978;86;28620;-66
2022/08/03 08:55:08;;;;;;;3.37;2.37;;;;;;;36.88;31.16;100479.02;2053357;86;27637;-65
2022/08/03 08:58:11;;;;;;;5.33;2.52;;;;;;;36.89;30.80;100481.28;2053210;86;28652;-68
2022/08/03 09:01:12;;;;;;;2.20;1.92;;;;;;;36.73;30.24;100480.09;2053243;86;31143;-67
2022/08/03 09:04:14;;;;;;;2.72;2.47;;;;;;;36.40;30.68;100476.86;2053252;86;33322;-66
2022/08/03 09:07:16;;;;;;;4.22;2.25;;;;;;;36.04;29.67;100480.20;2053212;86;30449;-66
2022/08/03 09:10:20;;;;;;;2.70;1.37;;;;;;;35.55;30.75;100473.36;2053371;86;27621;-65
2022/08/03 09:13:21;;;;;;;4.47;0.98;;;;;;;35.57;31.50;100479.02;2053495;86;28587;-68
2022/08/03 09:16:22;;;;;;;3.05;1.62;;;;;;;35.34;31.15;100476.11;2053327;86;32203;-63
2022/08/03 09:19:24;;;;;;;4.00;2.55;;;;;;;35.16;31.17;100476.47;2086076;85;33363;-67
2022/08/03 09:22:28;;;;;;;3.40;2.50;;;;;;;34.92;30.63;100475.48;2087981;85;29383;-67
2022/08/03 09:25:40;;;;;;;2.33;1.80;;;;;;;34.66;30.58;100471.41;2087756;85;27734;-64
2022/08/03 09:28:42;;;;;;;2.35;1.52;;;;;;;34.35;31.34;100469.05;2087806;85;29319;-66
2022/08/03 09:31:45;;;;;;;2.30;2.20;;;;;;;34.14;31.82;100476.42;2087787;83;31437;-67
2022/08/03 09:34:52;;;;;;;1.35;1.25;;;;;;;34.13;32.08;100471.94;2087876;85;32412;-65
2022/08/03 09:38:17;;;;;;;1.80;1.70;;;;;;;34.05;32.22;100466.12;2087761;85;29340;-66
2022/08/03 09:41:18;;;;;;;3.67;2.00;;;;;;;34.01;32.12;100469.05;2087887;85;27715;-68
2022/08/03 09:44:25;;;;;;;2.75;2.00;;;;;;;34.01;32.45;100471.83;2087325;85;28687;-67
2022/08/03 09:47:30;;;;;;;2.98;2.00;;;;;;;34.04;32.94;100467.20;2085132;85;31412;-67
2022/08/03 09:50:37;;;;;;;2.95;2.30;;;;;;;33.92;32.27;100471.30;2083812;85;33869;-68
2022/08/03 09:53:44;;;;;;;2.40;2.00;;;;;;;33.77;31.92;100467.42;2083776;85;29320;-67
2022/08/03 09:56:46;;;;;;;1.60;1.50;;;;;;;33.58;32.65;100455.41;2083683;85;27712;-67
2022/08/03 09:59:48;;;;;;;3.17;2.47;;;;;;;33.41;32.46;100463.41;2084043;85;28690;-65
2022/08/03 10:02:51;;;;;;;2.17;1.98;;;;;;;33.01;32.69;100457.53;2084116;85;32227;-68
2022/08/03 10:05:55;;;;;;;1.45;1.45;;;;;;;32.83;33.08;100454.94;2078343;84;33416;-67
2022/08/03 10:09:16;;;;;;;0.98;0.98;;;;;;;32.68;33.53;100450.17;2084032;85;30204;-64
2022/08/03 10:12:17;;;;;;;2.27;1.02;;;;;;;32.59;33.70;100450.95;2084110;85;27742;-66
2022/08/03 10:15:18;;;;;;;2.17;1.98;;;;;;;32.27;33.53;100442.51;2084054;85;28523;-65
2022/08/03 10:18:20;;;;;;;1.50;1.40;;;;;;;32.09;33.91;100444.55;2073293;84;31554;-66
2022/08/03 10:21:22;;;;;;;3.58;1.70;;;;;;;31.95;34.52;100442.31;2053798;86;33767;-66
2022/08/03 10:24:26;;;;;;;1.57;1.45;;;;;;;31.88;34.01;100440.06;2053920;86;29542;-67
2022/08/03 10:27:33;;;;;;;6.00;2.25;;;;;;;31.76;34.46;100442.66;2054039;86;27763;-65
2022/08/03 10:30:36;;;;;;;3.30;3.00;;;;;;;31.63;34.53;100437.37;2054112;86;28415;-65
2022/08/03 10:33:41;;;;;;;6.10;2.67;;;;;;;31.47;34.58;100432.25;2054152;86;31039;-69
2022/08/03 10:36:45;;;;;;;5.08;1.92;;;;;;;31.36;34.90;100435.11;2053632;86;34203;-65
2022/08/03 10:39:58;;;;;;;2.25;0.95;;;;;;;31.17;34.55;100427.97;2053971;86;30567;-66
2022/08/03 10:43:07;;;;;;;0.98;0.98;;;;;;;31.04;35.53;100433.41;2053339;86;27653;-67
2022/08/03 10:46:09;;;;;;;3.50;1.98;;;;;;;31.03;35.79;100439.49;2059091;85;29546;-65
2022/08/03 10:49:16;;;;;;;2.08;1.98;;;;;;;30.98;36.04;100441.19;2063607;85;31374;-67
2022/08/03 10:52:17;;;;;;;2.62;2.42;;;;;;;30.92;35.71;100437.34;2053124;86;34254;-67
2022/08/03 10:58:59;;;;;;;0.90;0.90;;;;;;;30.87;35.66;100437.09;2053099;86;27599;-64
2022/08/03 11:02:01;;;;;;;2.25;1.98;;;;;;;30.78;35.95;100432.28;2028734;86;29628;-66
2022/08/03 11:05:27;;;;;;;4.37;1.98;;;;;;;30.71;35.47;100430.00;2052961;86;31431;-66
2022/08/03 11:08:33;;;;;;;3.33;2.00;;;;;;;30.63;35.87;100432.95;2052747;86;32936;-65
2022/08/03 11:11:42;;;;;;;1.20;1.00;;;;;;;30.59;36.49;100431.14;2053082;86;29321;-65
2022/08/03 11:14:48;;;;;;;2.65;1.40;;;;;;;30.64;36.50;100427.75;2052948;86;27623;-67
2022/08/03 11:18:09;;;;;;;2.42;2.15;;;;;;;30.66;36.62;100428.41;2078319;84;29535;-66
2022/08/03 11:21:11;;;;;;;1.42;1.37;;;;;;;30.66;35.70;100424.25;2084292;84;32379;-66
2022/08/03 11:24:46;;;;;;;2.92;2.27;;;;;;;30.61;35.84;100423.50;2084123;85;33957;-67
2022/08/03 11:27:44;;;;;;;2.47;1.82;;;;;;;30.51;36.07;100423.84;2083559;85;30558;-65
2022/08/03 11:30:46;;;;;;;1.90;1.80;;;;;;;30.50;36.01;100422.64;2084583;85;27604;-66
2022/08/03 11:34:09;;;;;;;2.47;2.27;;;;;;;30.44;36.24;100422.43;2084482;85;29292;-64
2022/08/03 11:37:24;;;;;;;4.05;2.33;;;;;;;30.44;35.68;100417.41;2084216;85;31382;-64
2022/08/03 11:40:47;;;;;;;1.52;1.42;;;;;;;30.42;35.41;100406.58;2084221;85;32998;-66
2022/08/03 11:43:49;;;;;;;4.45;2.20;;;;;;;30.37;36.06;100412.36;2084312;84;29331;-66
2022/08/03 11:46:50;;;;;;;1.17;0.70;;;;;;;30.31;36.71;100410.77;2084478;85;28308;-67
2022/08/03 11:49:59;;;;;;;1.10;1.05;;;;;;;30.37;36.91;100405.45;2066807;85;28643;-64
2022/08/03 11:53:00;;;;;;;1.20;1.10;;;;;;;30.36;37.00;100408.77;2049129;86;31019;-66
2022/08/03 11:56:03;;;;;;;1.30;1.20;;;;;;;30.34;36.88;100405.34;2049193;86;34109;-68
2022/08/03 11:59:04;;;;;;;1.77;1.67;;;;;;;30.21;36.76;100395.06;2048823;86;29873;-64
2022/08/03 12:02:12;;;;;;;2.35;1.40;;;;;;;30.12;36.10;100397.13;2049492;86;27694;-67
2022/08/03 12:05:13;;;;;;;0.80;0.80;;;;;;;30.05;36.70;100404.55;2049370;86;29086;-65
2022/08/03 12:08:18;;;;;;;2.75;1.62;;;;;;;29.99;36.94;100406.21;2048995;86;31442;-65
2022/08/03 12:11:20;;;;;;;1.65;1.55;;;;;;;30.00;36.31;100397.38;2048939;86;32129;-66
2022/08/03 12:14:21;;;;;;;2.02;1.77;;;;;;;29.95;36.40;100399.88;2049178;86;29881;-68
2022/08/03 12:17:23;;;;;;;3.17;1.30;;;;;;;29.93;36.76;100390.40;2078055;85;27576;-64
2022/08/03 12:20:28;;;;;;;1.82;1.72;;;;;;;29.94;36.87;100385.75;2029222;86;28710;-67
2022/08/03 12:23:29;;;;;;;4.40;2.00;;;;;;;29.92;36.15;100383.16;2115471;84;30492;-67
2022/08/03 12:26:47;;;;;;;3.08;1.98;;;;;;;29.84;35.55;100384.17;2115439;84;34102;-66
2022/08/03 12:29:52;;;;;;;2.12;1.95;;;;;;;29.79;35.56;100377.55;2115400;84;30420;-64
2022/08/03 12:32:54;;;;;;;4.67;1.98;;;;;;;29.73;36.08;100372.31;2093572;84;27733;-65
2022/08/03 12:36:08;;;;;;;3.47;1.77;;;;;;;29.67;36.35;100378.63;2115246;84;28698;-67
2022/08/03 12:39:10;;;;;;;3.22;2.55;;;;;;;29.61;36.50;100378.07;2115666;84;31874;-66
2022/08/03 12:42:12;;;;;;;3.92;2.25;;;;;;;29.59;35.43;100379.63;2115090;84;33939;-66
2022/08/03 12:45:27;;;;;;;6.25;2.42;;;;;;;29.60;34.94;100371.67;2113165;84;29961;-66
2022/08/03 12:48:29;;;;;;;4.87;2.50;;;;;;;29.61;34.60;100372.01;2082769;85;27663;-63
2022/08/03 12:51:38;;;;;;;3.58;2.17;;;;;;;29.58;35.08;100372.40;2082514;85;30063;-66
2022/08/03 12:54:40;;;;;;;1.70;1.60;;;;;;;29.52;35.44;100368.53;2074811;85;31747;-64
2022/08/03 12:57:44;;;;;;;1.65;1.55;;;;;;;29.48;35.58;100371.36;2082618;85;33245;-68
2022/08/03 13:00:55;;;;;;;3.58;1.70;;;;;;;29.43;35.67;100364.23;2082426;85;30122;-64
2022/08/03 13:03:56;;;;;;;1.32;0.90;;;;;;;29.39;36.11;100365.67;2083184;85;27712;-70
2022/08/03 13:07:05;;;;;;;1.98;1.87;;;;;;;29.36;36.38;100360.54;2083226;85;28731;-70
2022/08/03 13:10:08;;;;;;;4.97;4.40;;;;;;;29.34;36.22;100363.48;2082256;85;31060;-65
2022/08/03 13:13:09;;;;;;;2.08;1.98;;;;;;;29.30;35.25;100365.43;2082953;85;32979;-69
2022/08/03 13:16:11;;;;;;;1.92;1.82;;;;;;;29.27;36.44;100368.07;2081897;85;29339;-69
2022/08/03 13:19:12;;;;;;;1.67;1.57;;;;;;;29.32;36.24;100364.71;2078337;84;28188;-68
2022/08/03 13:22:16;;;;;;;1.85;1.75;;;;;;;29.37;36.79;100365.02;2055327;86;30001;-69
2022/08/03 13:25:19;;;;;;;0.90;0.90;;;;;;;29.31;36.40;100363.88;2078093;85;31042;-66
2022/08/03 13:28:20;;;;;;;3.25;1.57;;;;;;;29.25;36.50;100363.27;2078238;85;33817;-64
2022/08/03 13:31:21;;;;;;;1.70;1.60;;;;;;;29.30;36.29;100357.16;2076975;85;29387;-71
2022/08/03 13:34:22;;;;;;;2.10;1.92;;;;;;;29.35;36.15;100360.21;2078261;85;27694;-72
2022/08/03 13:37:25;;;;;;;2.35;1.85;;;;;;;29.39;36.10;100356.01;2067039;85;28607;-67
2022/08/03 13:40:26;;;;;;;0.62;0.62;;;;;;;29.41;35.67;100357.50;2069142;85;31221;-70
2022/08/03 13:43:29;;;;;;;1.47;1.37;;;;;;;29.41;36.10;100352.53;2071707;85;33341;-66
2022/08/03 13:46:30;;;;;;;1.50;1.40;;;;;;;29.39;35.96;100355.47;2078208;85;29478;-68
2022/08/03 13:49:31;;;;;;;2.02;1.57;;;;;;;29.42;35.81;100361.14;2042798;86;27727;-62
2022/08/03 13:52:34;;;;;;;4.53;1.60;;;;;;;29.36;36.29;100356.40;2078195;85;29855;-69
2022/08/03 13:55:36;;;;;;;2.72;2.10;;;;;;;29.27;36.51;100352.89;2078271;85;32174;-64
2022/08/03 13:58:37;;;;;;;1.70;1.20;;;;;;;29.25;36.12;100348.97;2078185;85;34138;-67
2022/08/03 14:01:39;;;;;;;1.85;1.57;;;;;;;29.27;36.11;100348.76;2078194;85;29677;-68
2022/08/03 14:04:40;;;;;;;3.60;2.30;;;;;;;29.26;35.84;100345.16;2078534;85;27707;-64
2022/08/03 14:07:41;;;;;;;1.57;1.47;;;;;;;29.23;35.05;100347.44;2078335;85;29371;-68
2022/08/03 14:10:43;;;;;;;1.72;1.62;;;;;;;29.27;36.32;100340.48;2077907;85;31091;-69
2022/08/03 14:13:45;;;;;;;2.00;1.80;;;;;;;29.31;36.59;100338.16;2077947;85;32819;-68
2022/08/03 14:16:46;;;;;;;2.10;2.00;;;;;;;29.25;36.45;100335.17;2078321;85;30448;-67
2022/08/03 14:19:47;;;;;;;2.95;1.50;;;;;;;29.17;36.30;100327.56;2081290;84;27635;-69
2022/08/03 14:22:49;;;;;;;2.25;2.05;;;;;;;29.21;36.16;100328.34;2084399;85;29095;-68